METAR AND TAF INFORMATION
METAR FOR GMMX
ADDS - METARS form results

(0022 UTC 24 January 2019)
Data provider http://aviationweather.gov/metar/data/
 
METAR text: GMMX 240000Z 09007KT 9999 FEW023 SCT080 11/08 Q1021 NOSIG
Conditions at: GMMX (MARRAKECH/MENARA, MA) observed 0000 UTC 24 January 2019
Temperature: 11.0°C (52°F)
Dewpoint: 8.0°C (46°F) [RH = 82%]
Pressure (altimeter): 30.15 inches Hg (1021.0 mb)
Winds: from the E (90 degrees) at 8 MPH (7 knots; 3.6 m/s)
Visibility: 6 or more miles (10+ km)
Ceiling: at least 12,000 feet AGL
Clouds: few clouds at 2300 feet AGL
scattered clouds at 8000 feet AGL
Weather: no significant weather observed at this time

METAR text: GMMX 232330Z 11007KT 9999 SCT080 11/07 Q1021 NOSIG
Conditions at: GMMX (MARRAKECH/MENARA, MA) observed 2330 UTC 23 January 2019
Temperature: 11.0°C (52°F)
Dewpoint: 7.0°C (45°F) [RH = 76%]
Pressure (altimeter): 30.15 inches Hg (1021.0 mb)
Winds: from the ESE (110 degrees) at 8 MPH (7 knots; 3.6 m/s)
Visibility: 6 or more miles (10+ km)
Ceiling: at least 12,000 feet AGL
Clouds: scattered clouds at 8000 feet AGL
Weather: no significant weather observed at this time

Forecast for: GMMX (MARRAKECH/MENARA, MA)
Text: TAF GMMX 232300Z 2400/2506 06006KT 8000 NSC
Forecast period: 0000 UTC 24 January 2019 to 0600 UTC 25 January 2019
Forecast type: FROM: standard forecast or significant change
Winds: from the ENE (60 degrees) at 7 MPH (6 knots; 3.1 m/s)
Visibility: 5 miles (8 km)
Ceiling: unknown
Clouds: missing
Weather: no significant weather forecast for this period

AIRPORT MAP

RUNWAY INFORMATION
Runway 10 Runway length 10170 ft Runway width 148 ft
Runway elevation 1506 ft Runway displaced threshold 918 ft Runway heading 96
Runway 28 Runway length 10170 ft Runway width 148 ft
Runway elevation 1545 ft Runway displaced threshold 0 ft Runway heading 276

AIRPORT FREQUENCIES
Type APP Name MARRAKECH Frequency 119.7 MHZ
Type TWR Name MARRAKECH Frequency 118.7 MHZ

AIRPORT NEAR NAVIGATION AIDS
Type NDB Name Marrakech Frequency 267 KHZ
Type VOR-DME Name Marrakech Frequency 113300 KHZ